sensor_id;sensor_type;location;lat;lon;timestamp;P1;durP1;ratioP1;P2;durP2;ratioP2
32455;SDS011;18912;43.270;27.942;2024-03-08T00:02:13;58.80;;;25.65;;
32455;SDS011;18912;43.270;27.942;2024-03-08T00:04:39;58.30;;;24.52;;
32455;SDS011;18912;43.270;27.942;2024-03-08T00:07:04;67.83;;;27.20;;
32455;SDS011;18912;43.270;27.942;2024-03-08T00:09:31;63.67;;;26.20;;
32455;SDS011;18912;43.270;27.942;2024-03-08T00:11:57;62.13;;;25.87;;
32455;SDS011;18912;43.270;27.942;2024-03-08T00:14:22;59.95;;;25.98;;
32455;SDS011;18912;43.270;27.942;2024-03-08T00:16:48;60.17;;;24.63;;
32455;SDS011;18912;43.270;27.942;2024-03-08T00:19:14;55.83;;;23.70;;
32455;SDS011;18912;43.270;27.942;2024-03-08T00:21:39;58.23;;;24.77;;
32455;SDS011;18912;43.270;27.942;2024-03-08T00:24:05;55.80;;;25.53;;
32455;SDS011;18912;43.270;27.942;2024-03-08T00:26:31;60.40;;;25.95;;
32455;SDS011;18912;43.270;27.942;2024-03-08T00:28:58;59.67;;;25.15;;
32455;SDS011;18912;43.270;27.942;2024-03-08T00:31:23;59.37;;;26.33;;
32455;SDS011;18912;43.270;27.942;2024-03-08T00:33:50;60.38;;;26.33;;
32455;SDS011;18912;43.270;27.942;2024-03-08T00:36:16;58.63;;;25.17;;
32455;SDS011;18912;43.270;27.942;2024-03-08T00:38:41;57.40;;;25.17;;
32455;SDS011;18912;43.270;27.942;2024-03-08T00:41:07;51.45;;;24.38;;
32455;SDS011;18912;43.270;27.942;2024-03-08T00:43:33;53.10;;;23.63;;
32455;SDS011;18912;43.270;27.942;2024-03-08T00:45:59;50.22;;;22.55;;
32455;SDS011;18912;43.270;27.942;2024-03-08T00:48:26;62.00;;;25.10;;
32455;SDS011;18912;43.270;27.942;2024-03-08T00:50:51;58.10;;;23.00;;
32455;SDS011;18912;43.270;27.942;2024-03-08T00:53:17;59.72;;;24.25;;
32455;SDS011;18912;43.270;27.942;2024-03-08T00:55:43;53.57;;;23.73;;
32455;SDS011;18912;43.270;27.942;2024-03-08T00:58:11;52.13;;;24.05;;
32455;SDS011;18912;43.270;27.942;2024-03-08T01:00:37;46.88;;;22.67;;
32455;SDS011;18912;43.270;27.942;2024-03-08T01:05:29;59.83;;;22.58;;
32455;SDS011;18912;43.270;27.942;2024-03-08T01:07:55;61.13;;;22.50;;
32455;SDS011;18912;43.270;27.942;2024-03-08T01:10:20;56.77;;;23.77;;
32455;SDS011;18912;43.270;27.942;2024-03-08T01:12:46;71.07;;;22.93;;
32455;SDS011;18912;43.270;27.942;2024-03-08T01:15:11;45.73;;;22.67;;
32455;SDS011;18912;43.270;27.942;2024-03-08T01:17:37;58.07;;;22.80;;
32455;SDS011;18912;43.270;27.942;2024-03-08T01:20:03;58.88;;;23.55;;
32455;SDS011;18912;43.270;27.942;2024-03-08T01:22:30;58.47;;;21.20;;
32455;SDS011;18912;43.270;27.942;2024-03-08T01:24:56;53.60;;;22.13;;
32455;SDS011;18912;43.270;27.942;2024-03-08T01:27:21;54.75;;;22.75;;
32455;SDS011;18912;43.270;27.942;2024-03-08T01:29:47;54.70;;;22.38;;
32455;SDS011;18912;43.270;27.942;2024-03-08T01:32:13;52.27;;;22.50;;
32455;SDS011;18912;43.270;27.942;2024-03-08T01:37:05;60.95;;;22.05;;
32455;SDS011;18912;43.270;27.942;2024-03-08T01:41:57;49.35;;;21.65;;
32455;SDS011;18912;43.270;27.942;2024-03-08T01:44:23;53.13;;;22.00;;
32455;SDS011;18912;43.270;27.942;2024-03-08T01:46:49;60.47;;;21.98;;
32455;SDS011;18912;43.270;27.942;2024-03-08T01:49:17;46.50;;;21.55;;
32455;SDS011;18912;43.270;27.942;2024-03-08T01:51:45;59.30;;;21.38;;
32455;SDS011;18912;43.270;27.942;2024-03-08T01:54:13;55.28;;;20.35;;
32455;SDS011;18912;43.270;27.942;2024-03-08T01:56:41;46.75;;;21.58;;
32455;SDS011;18912;43.270;27.942;2024-03-08T01:59:07;43.03;;;20.25;;
32455;SDS011;18912;43.270;27.942;2024-03-08T02:01:34;46.28;;;19.98;;
32455;SDS011;18912;43.270;27.942;2024-03-08T02:03:59;50.67;;;20.90;;
32455;SDS011;18912;43.270;27.942;2024-03-08T02:06:25;57.50;;;20.07;;
32455;SDS011;18912;43.270;27.942;2024-03-08T02:08:50;47.03;;;20.53;;
32455;SDS011;18912;43.270;27.942;2024-03-08T02:11:16;44.63;;;19.60;;
32455;SDS011;18912;43.270;27.942;2024-03-08T02:13:43;40.28;;;20.23;;
32455;SDS011;18912;43.270;27.942;2024-03-08T02:16:09;47.37;;;21.10;;
32455;SDS011;18912;43.270;27.942;2024-03-08T02:18:35;42.67;;;19.17;;
32455;SDS011;18912;43.270;27.942;2024-03-08T02:21:01;41.50;;;19.92;;
32455;SDS011;18912;43.270;27.942;2024-03-08T02:23:28;46.15;;;19.73;;
32455;SDS011;18912;43.270;27.942;2024-03-08T02:26:03;47.33;;;19.98;;
32455;SDS011;18912;43.270;27.942;2024-03-08T02:28:29;47.20;;;20.95;;
32455;SDS011;18912;43.270;27.942;2024-03-08T02:30:55;50.42;;;20.83;;
32455;SDS011;18912;43.270;27.942;2024-03-08T02:33:21;48.63;;;21.07;;
32455;SDS011;18912;43.270;27.942;2024-03-08T02:35:48;45.00;;;19.35;;
32455;SDS011;18912;43.270;27.942;2024-03-08T02:38:16;48.28;;;19.60;;
32455;SDS011;18912;43.270;27.942;2024-03-08T02:40:44;40.15;;;19.10;;
32455;SDS011;18912;43.270;27.942;2024-03-08T02:43:11;48.22;;;21.27;;
32455;SDS011;18912;43.270;27.942;2024-03-08T02:45:38;47.03;;;20.60;;
32455;SDS011;18912;43.270;27.942;2024-03-08T02:48:04;47.13;;;20.00;;
32455;SDS011;18912;43.270;27.942;2024-03-08T02:50:31;38.42;;;18.95;;
32455;SDS011;18912;43.270;27.942;2024-03-08T02:52:58;50.33;;;20.20;;
32455;SDS011;18912;43.270;27.942;2024-03-08T02:55:24;52.67;;;19.30;;
32455;SDS011;18912;43.270;27.942;2024-03-08T02:57:51;57.00;;;20.58;;
32455;SDS011;18912;43.270;27.942;2024-03-08T03:00:17;47.47;;;20.00;;
32455;SDS011;18912;43.270;27.942;2024-03-08T03:02:44;46.58;;;19.85;;
32455;SDS011;18912;43.270;27.942;2024-03-08T03:05:11;39.85;;;18.55;;
32455;SDS011;18912;43.270;27.942;2024-03-08T03:07:37;44.43;;;19.20;;
32455;SDS011;18912;43.270;27.942;2024-03-08T03:10:03;66.47;;;20.75;;
32455;SDS011;18912;43.270;27.942;2024-03-08T03:12:29;47.88;;;19.75;;
32455;SDS011;18912;43.270;27.942;2024-03-08T03:14:56;45.85;;;21.58;;
32455;SDS011;18912;43.270;27.942;2024-03-08T03:17:25;45.15;;;20.35;;
32455;SDS011;18912;43.270;27.942;2024-03-08T03:19:51;43.72;;;20.33;;
32455;SDS011;18912;43.270;27.942;2024-03-08T03:22:20;42.80;;;19.98;;
32455;SDS011;18912;43.270;27.942;2024-03-08T03:24:46;53.35;;;20.55;;
32455;SDS011;18912;43.270;27.942;2024-03-08T03:27:12;40.90;;;19.80;;
32455;SDS011;18912;43.270;27.942;2024-03-08T03:29:40;50.72;;;21.30;;
32455;SDS011;18912;43.270;27.942;2024-03-08T03:32:11;45.72;;;19.40;;
32455;SDS011;18912;43.270;27.942;2024-03-08T03:34:40;46.95;;;20.73;;
32455;SDS011;18912;43.270;27.942;2024-03-08T03:37:06;45.47;;;20.42;;
32455;SDS011;18912;43.270;27.942;2024-03-08T03:39:37;51.97;;;20.92;;
32455;SDS011;18912;43.270;27.942;2024-03-08T03:42:18;53.30;;;20.52;;
32455;SDS011;18912;43.270;27.942;2024-03-08T03:44:47;45.67;;;20.50;;
32455;SDS011;18912;43.270;27.942;2024-03-08T03:47:14;47.33;;;21.33;;
32455;SDS011;18912;43.270;27.942;2024-03-08T03:49:40;50.42;;;20.35;;
32455;SDS011;18912;43.270;27.942;2024-03-08T03:52:06;47.33;;;21.80;;
32455;SDS011;18912;43.270;27.942;2024-03-08T03:54:32;55.90;;;20.77;;
32455;SDS011;18912;43.270;27.942;2024-03-08T03:56:58;54.95;;;22.15;;
32455;SDS011;18912;43.270;27.942;2024-03-08T03:59:25;52.58;;;21.70;;
32455;SDS011;18912;43.270;27.942;2024-03-08T04:01:52;52.67;;;20.50;;
32455;SDS011;18912;43.270;27.942;2024-03-08T04:04:18;55.50;;;23.10;;
32455;SDS011;18912;43.270;27.942;2024-03-08T04:06:43;46.37;;;20.83;;
32455;SDS011;18912;43.270;27.942;2024-03-08T04:09:10;44.55;;;20.83;;
32455;SDS011;18912;43.270;27.942;2024-03-08T04:11:36;42.85;;;20.05;;
32455;SDS011;18912;43.270;27.942;2024-03-08T04:14:01;48.53;;;20.80;;
32455;SDS011;18912;43.270;27.942;2024-03-08T04:16:27;46.63;;;20.47;;
32455;SDS011;18912;43.270;27.942;2024-03-08T04:18:52;46.63;;;19.67;;
32455;SDS011;18912;43.270;27.942;2024-03-08T04:21:18;46.83;;;20.20;;
32455;SDS011;18912;43.270;27.942;2024-03-08T04:23:46;50.95;;;20.95;;
32455;SDS011;18912;43.270;27.942;2024-03-08T04:26:12;43.70;;;19.93;;
32455;SDS011;18912;43.270;27.942;2024-03-08T04:28:38;54.05;;;20.83;;
32455;SDS011;18912;43.270;27.942;2024-03-08T04:31:04;49.33;;;21.52;;
32455;SDS011;18912;43.270;27.942;2024-03-08T04:33:31;45.97;;;19.25;;
32455;SDS011;18912;43.270;27.942;2024-03-08T04:35:57;51.03;;;21.35;;
32455;SDS011;18912;43.270;27.942;2024-03-08T04:38:23;50.03;;;21.30;;
32455;SDS011;18912;43.270;27.942;2024-03-08T04:43:15;46.47;;;20.13;;
32455;SDS011;18912;43.270;27.942;2024-03-08T04:45:43;47.90;;;20.92;;
32455;SDS011;18912;43.270;27.942;2024-03-08T04:48:09;48.42;;;20.63;;
32455;SDS011;18912;43.270;27.942;2024-03-08T04:50:35;45.60;;;21.40;;
32455;SDS011;18912;43.270;27.942;2024-03-08T04:53:00;45.97;;;21.33;;
32455;SDS011;18912;43.270;27.942;2024-03-08T04:55:25;49.87;;;20.67;;
32455;SDS011;18912;43.270;27.942;2024-03-08T04:57:51;54.67;;;22.27;;
32455;SDS011;18912;43.270;27.942;2024-03-08T05:00:18;47.15;;;20.90;;
32455;SDS011;18912;43.270;27.942;2024-03-08T05:02:44;48.47;;;22.02;;
32455;SDS011;18912;43.270;27.942;2024-03-08T05:05:09;52.23;;;22.73;;
32455;SDS011;18912;43.270;27.942;2024-03-08T05:07:37;44.28;;;20.83;;
32455;SDS011;18912;43.270;27.942;2024-03-08T05:10:04;61.17;;;25.50;;
32455;SDS011;18912;43.270;27.942;2024-03-08T05:12:31;50.88;;;22.88;;
32455;SDS011;18912;43.270;27.942;2024-03-08T05:14:57;53.42;;;23.23;;
32455;SDS011;18912;43.270;27.942;2024-03-08T05:17:23;57.33;;;23.50;;
32455;SDS011;18912;43.270;27.942;2024-03-08T05:19:49;53.17;;;22.33;;
32455;SDS011;18912;43.270;27.942;2024-03-08T05:22:15;46.85;;;23.63;;
32455;SDS011;18912;43.270;27.942;2024-03-08T05:24:40;53.30;;;23.37;;
32455;SDS011;18912;43.270;27.942;2024-03-08T05:27:06;49.90;;;21.73;;
32455;SDS011;18912;43.270;27.942;2024-03-08T05:29:31;49.33;;;21.37;;
32455;SDS011;18912;43.270;27.942;2024-03-08T05:31:58;65.10;;;25.40;;
32455;SDS011;18912;43.270;27.942;2024-03-08T05:34:24;48.40;;;23.30;;
32455;SDS011;18912;43.270;27.942;2024-03-08T05:36:51;59.10;;;24.83;;
32455;SDS011;18912;43.270;27.942;2024-03-08T05:39:17;61.67;;;25.23;;
32455;SDS011;18912;43.270;27.942;2024-03-08T05:41:43;62.08;;;23.85;;
32455;SDS011;18912;43.270;27.942;2024-03-08T05:44:10;56.75;;;24.00;;
32455;SDS011;18912;43.270;27.942;2024-03-08T05:46:38;61.85;;;22.67;;
32455;SDS011;18912;43.270;27.942;2024-03-08T05:51:33;61.17;;;24.30;;
32455;SDS011;18912;43.270;27.942;2024-03-08T05:54:03;63.38;;;23.23;;
32455;SDS011;18912;43.270;27.942;2024-03-08T05:56:34;62.45;;;23.40;;
32455;SDS011;18912;43.270;27.942;2024-03-08T05:59:01;51.67;;;23.65;;
32455;SDS011;18912;43.270;27.942;2024-03-08T06:01:27;58.85;;;24.08;;
32455;SDS011;18912;43.270;27.942;2024-03-08T06:04:01;61.72;;;22.33;;
32455;SDS011;18912;43.270;27.942;2024-03-08T06:06:27;55.88;;;23.98;;
32455;SDS011;18912;43.270;27.942;2024-03-08T06:08:53;53.73;;;23.30;;
32455;SDS011;18912;43.270;27.942;2024-03-08T06:11:21;51.75;;;22.13;;
32455;SDS011;18912;43.270;27.942;2024-03-08T06:13:47;57.05;;;23.50;;
32455;SDS011;18912;43.270;27.942;2024-03-08T06:16:13;60.15;;;23.00;;
32455;SDS011;18912;43.270;27.942;2024-03-08T06:18:38;59.03;;;20.83;;
32455;SDS011;18912;43.270;27.942;2024-03-08T06:21:04;54.33;;;21.90;;
32455;SDS011;18912;43.270;27.942;2024-03-08T06:23:34;51.35;;;22.42;;
32455;SDS011;18912;43.270;27.942;2024-03-08T06:26:06;46.95;;;19.17;;
32455;SDS011;18912;43.270;27.942;2024-03-08T06:28:33;46.30;;;19.13;;
32455;SDS011;18912;43.270;27.942;2024-03-08T06:31:00;49.25;;;20.13;;
32455;SDS011;18912;43.270;27.942;2024-03-08T06:33:26;42.20;;;19.45;;
32455;SDS011;18912;43.270;27.942;2024-03-08T06:35:52;35.40;;;18.23;;
32455;SDS011;18912;43.270;27.942;2024-03-08T06:38:18;39.30;;;17.58;;
32455;SDS011;18912;43.270;27.942;2024-03-08T06:40:44;44.00;;;17.58;;
32455;SDS011;18912;43.270;27.942;2024-03-08T06:43:12;36.55;;;17.85;;
32455;SDS011;18912;43.270;27.942;2024-03-08T06:45:41;34.05;;;16.90;;
32455;SDS011;18912;43.270;27.942;2024-03-08T06:48:14;32.67;;;16.63;;
32455;SDS011;18912;43.270;27.942;2024-03-08T06:50:42;39.17;;;17.27;;
32455;SDS011;18912;43.270;27.942;2024-03-08T06:53:12;40.00;;;17.70;;
32455;SDS011;18912;43.270;27.942;2024-03-08T06:55:38;35.35;;;17.15;;
32455;SDS011;18912;43.270;27.942;2024-03-08T07:00:32;39.13;;;17.00;;
32455;SDS011;18912;43.270;27.942;2024-03-08T07:02:58;38.78;;;17.50;;
32455;SDS011;18912;43.270;27.942;2024-03-08T07:05:26;45.88;;;16.70;;
32455;SDS011;18912;43.270;27.942;2024-03-08T07:07:52;38.72;;;17.80;;
32455;SDS011;18912;43.270;27.942;2024-03-08T07:10:20;39.42;;;17.38;;
32455;SDS011;18912;43.270;27.942;2024-03-08T07:12:46;42.30;;;18.15;;
32455;SDS011;18912;43.270;27.942;2024-03-08T07:15:12;39.65;;;18.25;;
32455;SDS011;18912;43.270;27.942;2024-03-08T07:17:42;39.55;;;18.52;;
32455;SDS011;18912;43.270;27.942;2024-03-08T07:20:09;41.75;;;19.05;;
32455;SDS011;18912;43.270;27.942;2024-03-08T07:33:17;49.45;;;23.00;;
32455;SDS011;18912;43.270;27.942;2024-03-08T07:35:43;42.83;;;20.02;;
32455;SDS011;18912;43.270;27.942;2024-03-08T07:38:10;50.10;;;20.45;;
32455;SDS011;18912;43.270;27.942;2024-03-08T07:40:37;48.20;;;21.42;;
32455;SDS011;18912;43.270;27.942;2024-03-08T07:43:06;48.65;;;20.27;;
32455;SDS011;18912;43.270;27.942;2024-03-08T07:47:57;44.95;;;19.52;;
32455;SDS011;18912;43.270;27.942;2024-03-08T07:50:23;44.20;;;20.20;;
32455;SDS011;18912;43.270;27.942;2024-03-08T07:52:49;46.37;;;20.33;;
32455;SDS011;18912;43.270;27.942;2024-03-08T07:55:14;51.17;;;20.67;;
32455;SDS011;18912;43.270;27.942;2024-03-08T07:57:40;44.83;;;19.87;;
32455;SDS011;18912;43.270;27.942;2024-03-08T08:00:07;56.28;;;22.17;;
32455;SDS011;18912;43.270;27.942;2024-03-08T08:02:38;47.95;;;20.20;;
32455;SDS011;18912;43.270;27.942;2024-03-08T08:05:04;44.97;;;20.73;;
32455;SDS011;18912;43.270;27.942;2024-03-08T08:07:30;48.47;;;21.08;;
32455;SDS011;18912;43.270;27.942;2024-03-08T08:09:56;52.60;;;21.00;;
32455;SDS011;18912;43.270;27.942;2024-03-08T08:12:21;61.10;;;21.43;;
32455;SDS011;18912;43.270;27.942;2024-03-08T08:14:47;53.50;;;19.80;;
32455;SDS011;18912;43.270;27.942;2024-03-08T08:17:12;66.73;;;20.13;;
32455;SDS011;18912;43.270;27.942;2024-03-08T08:19:40;47.17;;;20.10;;
32455;SDS011;18912;43.270;27.942;2024-03-08T08:22:06;46.63;;;20.08;;
32455;SDS011;18912;43.270;27.942;2024-03-08T08:24:34;34.90;;;18.20;;
32455;SDS011;18912;43.270;27.942;2024-03-08T08:27:02;45.65;;;17.90;;
32455;SDS011;18912;43.270;27.942;2024-03-08T08:29:27;46.45;;;20.05;;
32455;SDS011;18912;43.270;27.942;2024-03-08T08:31:53;44.60;;;19.57;;
32455;SDS011;18912;43.270;27.942;2024-03-08T08:34:19;36.23;;;17.37;;
32455;SDS011;18912;43.270;27.942;2024-03-08T08:36:45;35.87;;;16.63;;
32455;SDS011;18912;43.270;27.942;2024-03-08T08:39:10;36.60;;;16.00;;
32455;SDS011;18912;43.270;27.942;2024-03-08T08:41:39;42.30;;;16.98;;
32455;SDS011;18912;43.270;27.942;2024-03-08T08:44:06;42.33;;;17.67;;
32455;SDS011;18912;43.270;27.942;2024-03-08T08:46:38;37.20;;;18.02;;
32455;SDS011;18912;43.270;27.942;2024-03-08T08:49:04;43.03;;;17.60;;
32455;SDS011;18912;43.270;27.942;2024-03-08T08:51:31;41.92;;;18.75;;
32455;SDS011;18912;43.270;27.942;2024-03-08T08:53:59;46.63;;;18.70;;
32455;SDS011;18912;43.270;27.942;2024-03-08T08:56:25;41.10;;;18.30;;
32455;SDS011;18912;43.270;27.942;2024-03-08T08:58:51;39.70;;;17.25;;
32455;SDS011;18912;43.270;27.942;2024-03-08T09:01:18;37.47;;;17.38;;
32455;SDS011;18912;43.270;27.942;2024-03-08T09:03:44;37.33;;;17.83;;
32455;SDS011;18912;43.270;27.942;2024-03-08T09:06:12;40.42;;;18.08;;
32455;SDS011;18912;43.270;27.942;2024-03-08T09:08:41;44.40;;;19.60;;
32455;SDS011;18912;43.270;27.942;2024-03-08T09:11:08;51.83;;;18.00;;
32455;SDS011;18912;43.270;27.942;2024-03-08T09:13:34;43.25;;;19.73;;
32455;SDS011;18912;43.270;27.942;2024-03-08T09:16:00;53.77;;;19.40;;
32455;SDS011;18912;43.270;27.942;2024-03-08T09:18:27;62.80;;;20.45;;
32455;SDS011;18912;43.270;27.942;2024-03-08T09:20:54;56.42;;;20.98;;
32455;SDS011;18912;43.270;27.942;2024-03-08T09:23:20;59.70;;;21.07;;
32455;SDS011;18912;43.270;27.942;2024-03-08T09:25:45;47.70;;;20.38;;
32455;SDS011;18912;43.270;27.942;2024-03-08T09:28:11;53.15;;;20.75;;
32455;SDS011;18912;43.270;27.942;2024-03-08T09:30:40;50.53;;;21.13;;
32455;SDS011;18912;43.270;27.942;2024-03-08T09:33:06;43.65;;;19.95;;
32455;SDS011;18912;43.270;27.942;2024-03-08T09:35:32;61.40;;;20.08;;
32455;SDS011;18912;43.270;27.942;2024-03-08T09:37:58;49.17;;;21.50;;
32455;SDS011;18912;43.270;27.942;2024-03-08T09:40:24;53.20;;;22.20;;
32455;SDS011;18912;43.270;27.942;2024-03-08T09:42:50;48.85;;;20.02;;
32455;SDS011;18912;43.270;27.942;2024-03-08T09:45:17;61.08;;;21.23;;
32455;SDS011;18912;43.270;27.942;2024-03-08T09:47:47;55.15;;;21.08;;
32455;SDS011;18912;43.270;27.942;2024-03-08T09:50:13;44.50;;;19.33;;
32455;SDS011;18912;43.270;27.942;2024-03-08T09:52:41;55.38;;;21.65;;
32455;SDS011;18912;43.270;27.942;2024-03-08T09:55:11;53.78;;;21.42;;
32455;SDS011;18912;43.270;27.942;2024-03-08T09:57:37;41.63;;;19.95;;
32455;SDS011;18912;43.270;27.942;2024-03-08T10:00:03;52.03;;;20.93;;
32455;SDS011;18912;43.270;27.942;2024-03-08T10:02:50;44.13;;;20.05;;
32455;SDS011;18912;43.270;27.942;2024-03-08T10:05:19;50.15;;;20.38;;
32455;SDS011;18912;43.270;27.942;2024-03-08T10:07:45;42.95;;;17.95;;
32455;SDS011;18912;43.270;27.942;2024-03-08T10:10:10;48.07;;;18.53;;
32455;SDS011;18912;43.270;27.942;2024-03-08T10:15:05;42.10;;;17.27;;
32455;SDS011;18912;43.270;27.942;2024-03-08T10:17:34;53.63;;;20.83;;
32455;SDS011;18912;43.270;27.942;2024-03-08T10:20:02;47.78;;;19.20;;
32455;SDS011;18912;43.270;27.942;2024-03-08T10:22:29;44.88;;;19.20;;
32455;SDS011;18912;43.270;27.942;2024-03-08T10:24:56;44.30;;;19.80;;
32455;SDS011;18912;43.270;27.942;2024-03-08T10:27:23;42.75;;;19.83;;
32455;SDS011;18912;43.270;27.942;2024-03-08T10:29:50;45.95;;;19.20;;
32455;SDS011;18912;43.270;27.942;2024-03-08T10:32:17;49.13;;;19.63;;
32455;SDS011;18912;43.270;27.942;2024-03-08T10:34:43;52.23;;;21.53;;
32455;SDS011;18912;43.270;27.942;2024-03-08T10:39:42;52.22;;;21.08;;
32455;SDS011;18912;43.270;27.942;2024-03-08T10:42:17;58.72;;;22.88;;
32455;SDS011;18912;43.270;27.942;2024-03-08T10:45:03;49.70;;;19.42;;
32455;SDS011;18912;43.270;27.942;2024-03-08T10:47:38;50.85;;;20.45;;
32455;SDS011;18912;43.270;27.942;2024-03-08T10:52:42;47.40;;;19.67;;
32455;SDS011;18912;43.270;27.942;2024-03-08T10:55:08;59.50;;;20.73;;
32455;SDS011;18912;43.270;27.942;2024-03-08T10:57:38;48.70;;;20.58;;
32455;SDS011;18912;43.270;27.942;2024-03-08T11:00:04;49.03;;;19.75;;
32455;SDS011;18912;43.270;27.942;2024-03-08T11:02:35;42.03;;;19.30;;
32455;SDS011;18912;43.270;27.942;2024-03-08T11:05:00;46.43;;;20.13;;
32455;SDS011;18912;43.270;27.942;2024-03-08T11:07:33;55.85;;;20.23;;
32455;SDS011;18912;43.270;27.942;2024-03-08T11:10:03;54.28;;;19.13;;
32455;SDS011;18912;43.270;27.942;2024-03-08T11:12:36;40.45;;;18.15;;
32455;SDS011;18912;43.270;27.942;2024-03-08T11:15:09;45.35;;;18.88;;
32455;SDS011;18912;43.270;27.942;2024-03-08T11:20:14;46.55;;;18.80;;
32455;SDS011;18912;43.270;27.942;2024-03-08T11:28:22;49.03;;;21.27;;
32455;SDS011;18912;43.270;27.942;2024-03-08T11:33:25;43.80;;;19.95;;
32455;SDS011;18912;43.270;27.942;2024-03-08T11:36:01;51.40;;;20.90;;
32455;SDS011;18912;43.270;27.942;2024-03-08T11:38:41;46.70;;;19.60;;
32455;SDS011;18912;43.270;27.942;2024-03-08T11:41:17;60.27;;;19.10;;
32455;SDS011;18912;43.270;27.942;2024-03-08T11:43:46;49.47;;;19.23;;
32455;SDS011;18912;43.270;27.942;2024-03-08T11:46:16;47.35;;;18.85;;
32455;SDS011;18912;43.270;27.942;2024-03-08T11:48:43;48.30;;;19.52;;
32455;SDS011;18912;43.270;27.942;2024-03-08T11:51:13;50.20;;;18.50;;
32455;SDS011;18912;43.270;27.942;2024-03-08T11:53:40;41.72;;;17.95;;
32455;SDS011;18912;43.270;27.942;2024-03-08T11:56:07;51.10;;;20.05;;
32455;SDS011;18912;43.270;27.942;2024-03-08T11:58:34;37.20;;;17.10;;
32455;SDS011;18912;43.270;27.942;2024-03-08T12:01:03;46.17;;;18.23;;
32455;SDS011;18912;43.270;27.942;2024-03-08T12:03:30;41.97;;;17.63;;
32455;SDS011;18912;43.270;27.942;2024-03-08T12:05:59;48.53;;;17.65;;
32455;SDS011;18912;43.270;27.942;2024-03-08T12:08:25;32.58;;;16.52;;
32455;SDS011;18912;43.270;27.942;2024-03-08T12:10:54;44.75;;;17.83;;
32455;SDS011;18912;43.270;27.942;2024-03-08T12:13:34;39.28;;;16.30;;
32455;SDS011;18912;43.270;27.942;2024-03-08T12:16:03;33.50;;;16.83;;
32455;SDS011;18912;43.270;27.942;2024-03-08T12:18:33;39.95;;;17.27;;
32455;SDS011;18912;43.270;27.942;2024-03-08T12:23:33;40.60;;;16.13;;
32455;SDS011;18912;43.270;27.942;2024-03-08T12:26:45;33.50;;;15.15;;
32455;SDS011;18912;43.270;27.942;2024-03-08T12:28:49;41.47;;;15.07;;
32455;SDS011;18912;43.270;27.942;2024-03-08T12:31:18;34.15;;;15.45;;
32455;SDS011;18912;43.270;27.942;2024-03-08T12:33:50;38.47;;;15.65;;
32455;SDS011;18912;43.270;27.942;2024-03-08T12:36:17;44.60;;;15.90;;
32455;SDS011;18912;43.270;27.942;2024-03-08T12:38:48;41.00;;;16.63;;
32455;SDS011;18912;43.270;27.942;2024-03-08T12:41:17;40.47;;;17.27;;
32455;SDS011;18912;43.270;27.942;2024-03-08T12:43:44;48.10;;;18.10;;
32455;SDS011;18912;43.270;27.942;2024-03-08T12:46:20;38.45;;;15.75;;
32455;SDS011;18912;43.270;27.942;2024-03-08T12:48:47;42.47;;;17.10;;
32455;SDS011;18912;43.270;27.942;2024-03-08T12:51:13;39.05;;;16.30;;
32455;SDS011;18912;43.270;27.942;2024-03-08T12:53:41;48.05;;;17.20;;
32455;SDS011;18912;43.270;27.942;2024-03-08T12:56:09;39.17;;;16.90;;
32455;SDS011;18912;43.270;27.942;2024-03-08T12:58:36;42.80;;;17.80;;
32455;SDS011;18912;43.270;27.942;2024-03-08T13:01:02;43.03;;;16.73;;
32455;SDS011;18912;43.270;27.942;2024-03-08T13:03:34;34.45;;;16.17;;
32455;SDS011;18912;43.270;27.942;2024-03-08T13:06:03;40.83;;;16.17;;
32455;SDS011;18912;43.270;27.942;2024-03-08T13:08:36;42.83;;;17.58;;
32455;SDS011;18912;43.270;27.942;2024-03-08T13:11:05;52.30;;;18.30;;
32455;SDS011;18912;43.270;27.942;2024-03-08T13:13:36;47.17;;;16.23;;
32455;SDS011;18912;43.270;27.942;2024-03-08T13:16:03;43.85;;;17.08;;
32455;SDS011;18912;43.270;27.942;2024-03-08T13:18:33;42.90;;;18.52;;
32455;SDS011;18912;43.270;27.942;2024-03-08T13:20:59;48.67;;;18.20;;
32455;SDS011;18912;43.270;27.942;2024-03-08T13:23:30;54.25;;;19.02;;
32455;SDS011;18912;43.270;27.942;2024-03-08T13:25:56;56.83;;;19.42;;
32455;SDS011;18912;43.270;27.942;2024-03-08T13:28:22;53.03;;;18.85;;
32455;SDS011;18912;43.270;27.942;2024-03-08T13:30:49;46.78;;;18.73;;
32455;SDS011;18912;43.270;27.942;2024-03-08T13:33:14;50.20;;;17.63;;
32455;SDS011;18912;43.270;27.942;2024-03-08T13:35:40;55.77;;;19.00;;
32455;SDS011;18912;43.270;27.942;2024-03-08T13:38:06;43.83;;;18.75;;
32455;SDS011;18912;43.270;27.942;2024-03-08T13:40:34;50.58;;;19.30;;
32455;SDS011;18912;43.270;27.942;2024-03-08T13:42:59;39.97;;;18.07;;
32455;SDS011;18912;43.270;27.942;2024-03-08T13:45:26;46.05;;;18.55;;
32455;SDS011;18912;43.270;27.942;2024-03-08T13:47:52;37.70;;;17.07;;
32455;SDS011;18912;43.270;27.942;2024-03-08T13:50:19;44.22;;;17.55;;
32455;SDS011;18912;43.270;27.942;2024-03-08T13:52:49;45.17;;;16.63;;
32455;SDS011;18912;43.270;27.942;2024-03-08T13:55:19;44.92;;;16.83;;
32455;SDS011;18912;43.270;27.942;2024-03-08T13:57:47;49.80;;;16.95;;
32455;SDS011;18912;43.270;27.942;2024-03-08T14:02:39;40.50;;;15.90;;
32455;SDS011;18912;43.270;27.942;2024-03-08T14:05:06;41.50;;;15.70;;
32455;SDS011;18912;43.270;27.942;2024-03-08T14:07:34;43.42;;;15.75;;
32455;SDS011;18912;43.270;27.942;2024-03-08T14:10:00;41.03;;;15.70;;
32455;SDS011;18912;43.270;27.942;2024-03-08T14:12:26;44.70;;;16.77;;
32455;SDS011;18912;43.270;27.942;2024-03-08T14:14:55;41.73;;;15.40;;
32455;SDS011;18912;43.270;27.942;2024-03-08T14:17:24;42.88;;;16.40;;
32455;SDS011;18912;43.270;27.942;2024-03-08T14:19:52;39.97;;;15.25;;
32455;SDS011;18912;43.270;27.942;2024-03-08T14:22:18;46.00;;;14.70;;
32455;SDS011;18912;43.270;27.942;2024-03-08T14:24:45;38.58;;;16.10;;
32455;SDS011;18912;43.270;27.942;2024-03-08T14:27:10;53.90;;;15.88;;
32455;SDS011;18912;43.270;27.942;2024-03-08T14:29:37;39.65;;;16.25;;
32455;SDS011;18912;43.270;27.942;2024-03-08T14:34:31;35.15;;;15.25;;
32455;SDS011;18912;43.270;27.942;2024-03-08T14:36:59;44.53;;;15.50;;
32455;SDS011;18912;43.270;27.942;2024-03-08T14:39:25;38.25;;;15.02;;
32455;SDS011;18912;43.270;27.942;2024-03-08T14:41:54;41.55;;;15.57;;
32455;SDS011;18912;43.270;27.942;2024-03-08T14:46:51;34.30;;;14.35;;
32455;SDS011;18912;43.270;27.942;2024-03-08T14:49:23;37.85;;;16.65;;
32455;SDS011;18912;43.270;27.942;2024-03-08T14:51:51;40.10;;;16.05;;
32455;SDS011;18912;43.270;27.942;2024-03-08T14:54:17;35.83;;;15.98;;
32455;SDS011;18912;43.270;27.942;2024-03-08T14:56:48;32.20;;;14.82;;
32455;SDS011;18912;43.270;27.942;2024-03-08T14:59:18;37.55;;;15.45;;
32455;SDS011;18912;43.270;27.942;2024-03-08T15:01:45;31.65;;;15.02;;
32455;SDS011;18912;43.270;27.942;2024-03-08T15:06:40;32.55;;;14.85;;
32455;SDS011;18912;43.270;27.942;2024-03-08T15:09:08;44.47;;;15.43;;